Time;durP1;ratioP1;P1;durP2;ratioP2;P2;SDS_P1;SDS_P2;PMS_P1;PMS_P2;Temp;Humidity;BMP_temperature;BMP_pressure;BME280_temperature;BME280_humidity;BME280_pressure;Samples;Min_cycle;Max_cycle;Signal;HPM_P1;HPM_P2
2022/04/14 00:01:42;;;;;;;12.20;6.25;;;;;;;8.14;56.54;99258.00;4379793;32;20090;-68
2022/04/14 00:04:09;;;;;;;12.40;5.78;;;;;;;8.15;56.43;99259.69;4379818;32;20090;-68
2022/04/14 00:06:37;;;;;;;13.50;5.70;;;;;;;8.09;56.33;99255.72;4379752;32;20095;-68
2022/04/14 00:09:04;;;;;;;10.68;5.57;;;;;;;8.09;56.32;99262.72;4379761;32;20095;-68
2022/04/14 00:11:31;;;;;;;10.93;5.50;;;;;;;8.00;56.48;99249.38;4379857;32;20094;-68
2022/04/14 00:13:58;;;;;;;9.18;5.65;;;;;;;7.93;56.32;99248.16;4379749;32;20101;-68
2022/04/14 00:16:26;;;;;;;15.35;6.37;;;;;;;7.94;56.98;99247.19;4379668;32;20142;-68
2022/04/14 00:18:54;;;;;;;13.62;5.70;;;;;;;7.83;57.07;99252.34;4379742;32;20180;-68
2022/04/14 00:21:21;;;;;;;11.93;5.93;;;;;;;7.82;56.63;99248.06;4379130;32;20129;-68
2022/04/14 00:23:48;;;;;;;9.77;5.45;;;;;;;7.87;56.02;99245.97;4379605;32;20173;-68
2022/04/14 00:26:16;;;;;;;8.85;4.57;;;;;;;7.86;55.59;99246.91;4379641;32;20158;-68
2022/04/14 00:28:44;;;;;;;12.40;5.12;;;;;;;7.89;55.39;99251.91;4379645;32;20103;-68
2022/04/14 00:31:12;;;;;;;9.50;5.03;;;;;;;7.82;55.69;99250.69;4379678;32;20102;-68
2022/04/14 00:33:39;;;;;;;13.10;5.60;;;;;;;7.80;55.76;99252.56;4379558;32;20145;-68
2022/04/14 00:36:06;;;;;;;8.68;5.53;;;;;;;7.74;56.04;99247.78;4379602;32;20608;-68
2022/04/14 00:38:34;;;;;;;8.02;4.93;;;;;;;7.72;55.45;99252.25;4379651;32;20125;-68
2022/04/14 00:41:01;;;;;;;9.43;5.03;;;;;;;7.73;55.24;99251.31;4379423;32;20116;-68
2022/04/14 00:43:30;;;;;;;12.93;5.40;;;;;;;7.70;54.84;99252.38;4379525;32;20106;-68
2022/04/14 00:46:03;;;;;;;8.85;4.62;;;;;;;7.70;54.86;99254.16;4379555;32;20117;-68
2022/04/14 00:48:31;;;;;;;9.80;4.80;;;;;;;7.65;54.97;99251.88;4379508;32;20091;-68
2022/04/14 00:51:00;;;;;;;11.63;5.18;;;;;;;7.62;54.85;99247.69;4379548;32;20466;-68
2022/04/14 00:53:27;;;;;;;9.73;5.65;;;;;;;7.54;55.45;99243.94;4379488;32;20409;-68
2022/04/14 00:55:55;;;;;;;7.50;4.87;;;;;;;7.37;55.73;99247.72;4379423;32;20174;-68
2022/04/14 00:58:22;;;;;;;11.38;5.10;;;;;;;7.39;55.40;99244.06;4379238;32;20098;-68
2022/04/14 01:00:49;;;;;;;7.85;4.60;;;;;;;7.51;55.18;99250.22;4379264;32;20165;-68
2022/04/14 01:03:18;;;;;;;10.48;5.28;;;;;;;7.52;55.37;99244.03;4379368;32;20082;-68
2022/04/14 01:05:46;;;;;;;14.75;5.37;;;;;;;7.50;55.27;99240.72;4379386;32;20118;-68
2022/04/14 01:08:17;;;;;;;11.00;4.85;;;;;;;7.50;55.37;99240.72;4365939;32;20189;-68
2022/04/14 01:10:50;;;;;;;7.97;4.87;;;;;;;7.50;55.71;99245.94;4379461;32;20082;-68
2022/04/14 01:13:18;;;;;;;11.32;5.65;;;;;;;7.44;56.14;99246.34;4379324;32;20074;-68
2022/04/14 01:15:47;;;;;;;11.02;5.78;;;;;;;7.39;56.59;99245.84;4379324;32;20121;-68
2022/04/14 01:18:15;;;;;;;9.23;5.05;;;;;;;7.38;56.55;99238.97;4379322;32;20083;-68
2022/04/14 01:20:43;;;;;;;10.45;5.53;;;;;;;7.44;56.48;99243.75;4379426;32;20082;-68
2022/04/14 01:23:11;;;;;;;8.73;5.40;;;;;;;7.45;56.18;99240.22;4379172;32;20141;-68
2022/04/14 01:25:38;;;;;;;11.35;5.45;;;;;;;7.45;56.35;99240.22;4365516;32;20103;-68
2022/04/14 01:28:06;;;;;;;12.63;6.03;;;;;;;7.37;56.69;99242.50;4379376;32;20515;-68
2022/04/14 01:30:36;;;;;;;11.15;5.93;;;;;;;7.40;56.90;99243.12;4379100;32;20444;-68
2022/04/14 01:33:04;;;;;;;8.77;4.85;;;;;;;7.36;56.91;99235.59;4378010;32;20082;-68
2022/04/14 01:35:31;;;;;;;9.00;5.12;;;;;;;7.41;56.40;99236.13;4379192;32;20115;-68
2022/04/14 01:37:59;;;;;;;11.40;5.10;;;;;;;7.31;56.54;99240.31;4379020;32;20094;-68
2022/04/14 01:40:28;;;;;;;10.60;5.15;;;;;;;7.26;56.84;99246.66;4379210;32;20155;-68
2022/04/14 01:42:59;;;;;;;8.95;5.43;;;;;;;7.25;57.10;99245.00;4379090;32;20516;-68
2022/04/14 01:45:28;;;;;;;11.18;5.25;;;;;;;7.31;57.05;99254.16;4379117;32;20154;-68
2022/04/14 01:47:55;;;;;;;10.60;4.55;;;;;;;7.27;57.05;99248.34;4379090;32;20095;-68
2022/04/14 01:50:22;;;;;;;10.27;5.70;;;;;;;7.28;56.87;99244.81;4379089;32;20473;-68
2022/04/14 01:52:50;;;;;;;8.88;5.12;;;;;;;7.16;57.69;99253.44;4378955;32;20113;-68
2022/04/14 01:55:17;;;;;;;10.02;5.78;;;;;;;7.09;57.92;99247.81;4359600;32;20508;-68
2022/04/14 01:57:46;;;;;;;10.23;5.40;;;;;;;7.02;58.00;99256.13;4378740;32;20099;-68
2022/04/14 02:00:16;;;;;;;7.62;5.15;;;;;;;6.85;59.58;99246.84;4378920;32;20164;-68
2022/04/14 02:02:43;;;;;;;10.32;5.32;;;;;;;6.72;59.83;99247.66;4378842;32;20105;-68
2022/04/14 02:05:10;;;;;;;11.80;5.60;;;;;;;6.61;61.05;99246.69;4378969;32;20125;-68
2022/04/14 02:07:38;;;;;;;9.18;5.25;;;;;;;6.46;61.84;99246.72;4378948;32;20434;-68
2022/04/14 02:10:06;;;;;;;8.35;5.18;;;;;;;6.34;62.67;99253.59;4378915;32;20095;-68
2022/04/14 02:12:34;;;;;;;9.98;5.25;;;;;;;6.17;63.89;99256.41;4365400;32;20086;-68
2022/04/14 02:15:02;;;;;;;9.80;5.22;;;;;;;5.99;65.32;99248.00;4378754;32;20169;-68
2022/04/14 02:17:29;;;;;;;9.55;4.97;;;;;;;5.91;64.94;99245.03;4378764;32;20188;-68
2022/04/14 02:19:56;;;;;;;9.25;5.22;;;;;;;5.81;65.41;99253.41;4378737;32;20433;-68
2022/04/14 02:22:24;;;;;;;8.40;5.22;;;;;;;5.69;67.60;99246.31;4378875;32;20109;-68
2022/04/14 02:24:51;;;;;;;12.45;5.70;;;;;;;5.50;68.95;99252.66;4378690;32;20054;-68
2022/04/14 02:27:19;;;;;;;7.78;5.22;;;;;;;5.44;68.31;99252.19;4378595;32;20121;-68
2022/04/14 02:29:46;;;;;;;10.27;5.82;;;;;;;5.35;69.58;99256.19;4378497;32;20514;-68
2022/04/14 02:32:13;;;;;;;12.10;5.85;;;;;;;5.27;69.77;99255.81;4378489;32;20145;-68
2022/04/14 02:34:40;;;;;;;10.13;5.25;;;;;;;5.21;69.51;99257.00;4378780;32;20122;-68
2022/04/14 02:37:08;;;;;;;8.57;4.93;;;;;;;5.12;70.01;99258.38;4378723;32;20161;-68
2022/04/14 02:39:35;;;;;;;9.63;5.12;;;;;;;5.06;70.24;99257.91;4378790;32;20194;-68
2022/04/14 02:42:03;;;;;;;9.30;4.90;;;;;;;4.99;70.88;99254.81;4377276;32;20144;-68
2022/04/14 02:44:30;;;;;;;9.45;5.65;;;;;;;4.91;71.09;99251.84;4379801;32;20129;-68
2022/04/14 02:46:57;;;;;;;11.55;5.90;;;;;;;4.85;71.23;99249.62;4380373;32;20208;-68
2022/04/14 02:49:24;;;;;;;8.20;5.35;;;;;;;4.78;71.18;99241.34;4380630;32;20090;-68
2022/04/14 02:51:52;;;;;;;7.75;4.75;;;;;;;4.69;71.48;99240.09;4380466;32;20091;-68
2022/04/14 02:54:19;;;;;;;12.10;4.93;;;;;;;4.65;71.67;99248.16;4380313;32;20118;-68
2022/04/14 02:56:46;;;;;;;9.82;5.18;;;;;;;4.55;71.87;99245.25;4380170;32;20129;-68
2022/04/14 02:59:13;;;;;;;14.43;5.87;;;;;;;4.46;72.22;99245.78;4380368;32;20117;-68
2022/04/14 03:01:40;;;;;;;11.85;5.30;;;;;;;4.37;72.28;99240.16;4380209;32;20086;-68
2022/04/14 03:04:07;;;;;;;9.20;4.80;;;;;;;4.37;72.17;99237.56;4380205;32;20095;-68
2022/04/14 03:06:35;;;;;;;9.77;5.30;;;;;;;4.36;71.70;99237.66;4380272;32;20099;-68
2022/04/14 03:09:02;;;;;;;9.80;5.65;;;;;;;4.32;72.07;99237.00;4380352;32;20431;-68
2022/04/14 03:11:29;;;;;;;11.77;5.03;;;;;;;4.27;72.47;99239.03;4380167;32;20397;-68
2022/04/14 03:13:56;;;;;;;10.35;5.37;;;;;;;4.25;72.36;99246.03;4380129;32;20445;-68
2022/04/14 03:16:24;;;;;;;10.40;5.43;;;;;;;4.24;72.54;99244.41;4380253;32;20103;-68
2022/04/14 03:18:51;;;;;;;9.63;4.85;;;;;;;4.17;72.81;99243.06;4380017;32;20091;-68
2022/04/14 03:21:18;;;;;;;10.15;5.28;;;;;;;4.14;73.20;99240.63;4380150;32;20138;-68
2022/04/14 03:23:45;;;;;;;12.18;5.30;;;;;;;4.10;73.66;99242.53;4380103;32;20095;-68
2022/04/14 03:26:12;;;;;;;11.65;5.32;;;;;;;4.07;73.59;99243.56;4366549;32;20226;-68
2022/04/14 03:28:40;;;;;;;12.43;5.35;;;;;;;4.02;73.96;99245.56;4380015;32;20098;-68
2022/04/14 03:31:08;;;;;;;7.70;4.93;;;;;;;4.01;73.54;99240.44;4379963;32;20109;-68
2022/04/14 03:33:35;;;;;;;13.07;6.25;;;;;;;3.97;73.55;99247.56;4380068;32;20121;-68
2022/04/14 03:36:02;;;;;;;16.92;7.87;;;;;;;3.92;73.92;99244.38;4380339;32;20377;-68
2022/04/14 03:38:29;;;;;;;10.75;6.18;;;;;;;3.89;73.94;99245.41;4379848;32;20566;-68
2022/04/14 03:41:06;;;;;;;11.05;6.22;;;;;;;3.89;73.62;99242.81;4380020;32;20117;-68
2022/04/14 03:43:34;;;;;;;11.65;6.07;;;;;;;3.93;73.15;99240.88;4379906;32;20095;-68
2022/04/14 03:46:02;;;;;;;9.25;5.60;;;;;;;3.95;72.86;99246.84;4379902;32;20099;-68
2022/04/14 03:48:30;;;;;;;8.63;5.25;;;;;;;3.95;73.40;99249.41;4379849;32;20086;-68
2022/04/14 03:50:58;;;;;;;11.12;5.85;;;;;;;3.91;73.83;99253.09;4379824;32;20106;-68
2022/04/14 03:53:25;;;;;;;9.68;5.05;;;;;;;3.87;74.07;99262.75;4379932;32;20179;-68
2022/04/14 03:55:52;;;;;;;8.38;5.45;;;;;;;3.85;74.21;99253.44;4379257;32;20103;-68
2022/04/14 03:58:19;;;;;;;10.25;4.95;;;;;;;3.77;74.67;99258.16;4379617;32;20151;-68
2022/04/14 04:00:46;;;;;;;8.38;4.60;;;;;;;3.77;74.63;99261.63;4379837;32;20496;-68
2022/04/14 04:03:14;;;;;;;10.93;4.80;;;;;;;3.73;74.72;99254.91;4379929;32;20437;-68
2022/04/14 04:05:41;;;;;;;12.48;5.30;;;;;;;3.72;74.56;99264.44;4379838;32;20588;-68
2022/04/14 04:08:09;;;;;;;10.10;5.10;;;;;;;3.79;74.43;99258.94;4379754;32;20108;-68
2022/04/14 04:10:36;;;;;;;6.60;4.53;;;;;;;3.78;74.25;99255.50;4379691;32;20098;-68
2022/04/14 04:13:03;;;;;;;10.02;4.93;;;;;;;3.80;74.13;99263.19;4379858;32;20102;-68
2022/04/14 04:15:31;;;;;;;10.00;5.00;;;;;;;3.80;74.25;99264.03;4380108;32;20082;-68
2022/04/14 04:17:59;;;;;;;9.00;4.95;;;;;;;3.79;74.30;99264.13;4379738;32;20082;-68
2022/04/14 04:20:26;;;;;;;10.77;5.50;;;;;;;3.81;74.25;99270.03;4379692;32;20086;-68
2022/04/14 04:22:53;;;;;;;12.13;5.10;;;;;;;3.84;74.02;99270.72;4379615;32;20125;-68
2022/04/14 04:25:20;;;;;;;10.13;5.05;;;;;;;3.85;74.48;99263.78;4366122;32;20098;-68
2022/04/14 04:27:47;;;;;;;11.32;5.28;;;;;;;3.89;74.17;99260.94;4379762;32;20105;-68
2022/04/14 04:30:15;;;;;;;10.07;5.12;;;;;;;3.90;74.52;99270.37;4379623;32;20084;-68
2022/04/14 04:32:42;;;;;;;8.30;4.68;;;;;;;3.93;74.57;99265.97;4379657;32;20457;-68
2022/04/14 04:35:09;;;;;;;9.63;4.82;;;;;;;3.96;74.74;99269.22;4379700;32;20095;-68
2022/04/14 04:37:37;;;;;;;12.65;5.35;;;;;;;4.00;74.47;99262.97;4379655;32;20171;-68
2022/04/14 04:40:05;;;;;;;9.65;5.50;;;;;;;4.05;74.38;99263.53;4379882;32;20090;-68
2022/04/14 04:42:32;;;;;;;8.85;5.05;;;;;;;4.12;73.89;99266.66;4379853;32;20118;-68
2022/04/14 04:44:59;;;;;;;11.95;5.62;;;;;;;4.21;73.59;99273.06;4379632;32;20160;-68
2022/04/14 04:47:26;;;;;;;7.65;4.93;;;;;;;4.37;73.41;99270.47;4379451;32;20456;-68
2022/04/14 04:49:59;;;;;;;10.93;5.22;;;;;;;4.49;73.05;99272.38;4365882;32;20086;-68
2022/04/14 04:52:27;;;;;;;9.35;5.75;;;;;;;4.56;73.27;99275.47;4379475;32;20378;-68
2022/04/14 04:54:55;;;;;;;10.25;5.75;;;;;;;4.63;73.17;99284.56;4379485;32;20102;-68
2022/04/14 04:57:22;;;;;;;11.07;5.72;;;;;;;4.70;73.16;99285.91;4378072;32;20087;-68
2022/04/14 04:59:49;;;;;;;10.02;5.82;;;;;;;4.73;73.13;99285.72;4379256;32;20078;-68
2022/04/14 05:02:16;;;;;;;12.45;5.30;;;;;;;4.81;72.93;99287.88;4378136;32;20133;-68
2022/04/14 05:04:43;;;;;;;9.57;5.45;;;;;;;4.90;72.80;99294.31;4379664;32;20122;-68
2022/04/14 05:07:11;;;;;;;10.38;5.97;;;;;;;4.98;72.88;99295.53;4379254;32;20424;-68
2022/04/14 05:09:39;;;;;;;13.60;5.47;;;;;;;5.06;72.92;99296.88;4379259;32;20086;-68
2022/04/14 05:15:36;;;;;;;13.40;5.87;;;;;;;5.30;72.44;99294.59;4379430;32;20161;-68
2022/04/14 05:18:03;;;;;;;13.15;6.22;;;;;;;5.61;71.45;99301.38;4379222;32;20370;-67
2022/04/14 05:20:31;;;;;;;22.30;5.97;;;;;;;5.87;70.74;99299.81;4379579;32;20140;-67
2022/04/14 05:22:58;;;;;;;14.40;6.07;;;;;;;6.14;70.34;99301.66;4379283;32;20434;-67
2022/04/14 05:25:26;;;;;;;25.12;6.68;;;;;;;6.46;70.48;99297.97;4379250;32;20119;-68
2022/04/14 05:27:54;;;;;;;14.95;6.25;;;;;;;6.78;70.31;99303.69;4379239;32;20562;-68
2022/04/14 05:30:21;;;;;;;18.02;7.35;;;;;;;7.09;70.63;99306.91;4379323;32;20124;-68
2022/04/14 05:32:48;;;;;;;20.52;6.57;;;;;;;7.43;70.11;99297.66;4379282;32;20118;-68
2022/04/14 05:35:15;;;;;;;9.82;6.15;;;;;;;7.73;67.17;99306.09;4379293;32;20114;-69
2022/04/14 05:37:42;;;;;;;17.77;6.47;;;;;;;8.17;65.21;99310.84;4379159;32;20086;-69
2022/04/14 05:40:10;;;;;;;17.02;6.68;;;;;;;8.55;62.42;99310.84;4379142;32;20145;-69
2022/04/14 05:42:37;;;;;;;16.67;6.72;;;;;;;8.89;58.76;99306.59;4379143;32;20434;-69
2022/04/14 05:45:05;;;;;;;22.23;7.47;;;;;;;9.30;58.30;99307.91;4379124;32;20099;-69
2022/04/14 05:47:32;;;;;;;12.70;6.90;;;;;;;9.81;56.74;99316.28;4379441;32;20106;-69
2022/04/14 05:49:59;;;;;;;12.32;6.12;;;;;;;10.20;53.17;99316.75;4379187;32;20113;-68
2022/04/14 05:52:26;;;;;;;13.02;6.57;;;;;;;10.45;51.63;99305.19;4379104;32;20095;-69
2022/04/14 05:54:54;;;;;;;18.67;6.57;;;;;;;10.85;50.59;99314.22;4377863;32;20106;-69
2022/04/14 05:57:22;;;;;;;13.32;6.57;;;;;;;10.97;50.47;99305.34;4378767;32;20124;-69
2022/04/14 05:59:49;;;;;;;13.90;6.55;;;;;;;11.22;49.70;99308.56;4379214;32;20106;-68
2022/04/14 06:02:18;;;;;;;12.75;6.40;;;;;;;11.37;48.05;99309.91;4365267;32;20103;-68
2022/04/14 06:04:46;;;;;;;13.68;6.30;;;;;;;11.61;48.05;99311.41;4379072;32;20156;-68
2022/04/14 06:07:13;;;;;;;12.68;6.30;;;;;;;11.75;46.60;99307.59;4378940;32;20117;-68
2022/04/14 06:09:40;;;;;;;12.95;5.82;;;;;;;11.87;46.95;99307.41;4378991;32;20082;-68
2022/04/14 06:12:08;;;;;;;12.88;5.47;;;;;;;12.10;45.96;99294.09;4378817;32;20153;-68
2022/04/14 06:14:49;;;;;;;11.65;5.50;;;;;;;12.31;47.17;99304.53;4378948;32;20087;-68
2022/04/14 06:20:48;;;;;;;13.13;4.72;;;;;;;12.73;45.65;99306.09;4378675;32;20120;-68
2022/04/14 06:23:16;;;;;;;9.45;5.32;;;;;;;12.76;47.18;99308.44;4379023;32;20107;-68
2022/04/14 06:25:49;;;;;;;11.05;5.62;;;;;;;13.01;46.98;99306.25;4378744;32;20099;-68
2022/04/14 06:28:17;;;;;;;9.77;4.63;;;;;;;13.31;45.83;99306.06;4378873;32;20082;-68
2022/04/14 06:30:49;;;;;;;11.77;4.93;;;;;;;13.37;46.48;99304.69;4378617;32;20129;-69
2022/04/14 06:33:16;;;;;;;9.85;5.65;;;;;;;13.35;43.18;99308.44;4378540;32;20125;-68
2022/04/14 06:35:43;;;;;;;9.63;4.85;;;;;;;13.52;44.19;99309.50;4378563;32;20091;-67
2022/04/14 06:38:11;;;;;;;8.80;4.40;;;;;;;13.62;44.04;99303.22;4378807;32;20110;-67
2022/04/14 06:40:41;;;;;;;12.30;4.90;;;;;;;13.77;42.93;99302.78;4378539;32;20103;-67
2022/04/14 06:43:08;;;;;;;9.35;5.10;;;;;;;13.79;44.60;99311.34;4378406;32;20441;-67
2022/04/14 06:45:35;;;;;;;15.77;5.43;;;;;;;14.02;43.53;99302.13;4378596;32;20472;-67
2022/04/14 06:48:04;;;;;;;11.18;5.78;;;;;;;14.28;42.58;99308.50;4378444;32;20091;-67
2022/04/14 06:54:02;;;;;;;21.70;5.35;;;;;;;14.37;42.89;99308.44;4378428;32;20172;-67
2022/04/14 06:56:30;;;;;;;10.55;5.10;;;;;;;14.32;41.62;99313.34;4378022;32;20095;-67
2022/04/14 06:58:57;;;;;;;11.55;5.05;;;;;;;14.35;42.10;99315.69;4378082;32;20091;-67
2022/04/14 07:01:24;;;;;;;12.70;5.53;;;;;;;14.15;44.65;99306.22;4378502;32;20113;-67
2022/04/14 07:03:52;;;;;;;13.85;6.20;;;;;;;14.40;42.81;99309.97;4378074;32;20591;-67
2022/04/14 07:06:19;;;;;;;11.12;5.20;;;;;;;14.34;42.03;99307.91;4378082;32;20098;-67
2022/04/14 07:08:46;;;;;;;9.55;4.97;;;;;;;14.21;42.43;99310.88;4364498;32;20090;-67
2022/04/14 07:11:14;;;;;;;12.95;5.82;;;;;;;14.24;40.36;99312.41;4378083;32;20129;-67
2022/04/14 07:13:41;;;;;;;13.13;5.37;;;;;;;14.47;40.73;99310.19;4378068;32;20129;-67
2022/04/14 07:16:09;;;;;;;10.23;5.25;;;;;;;14.40;37.59;99317.00;4377936;32;20117;-67
2022/04/14 07:22:07;;;;;;;12.60;7.18;;;;;;;14.45;37.28;99312.16;4377692;32;20158;-67
2022/04/14 07:24:35;;;;;;;14.52;6.37;;;;;;;14.30;38.77;99312.63;4377723;32;20125;-67
2022/04/14 07:27:02;;;;;;;10.40;5.82;;;;;;;14.09;37.66;99307.63;4377831;32;20102;-67
2022/04/14 07:33:00;;;;;;;10.90;4.87;;;;;;;14.38;34.28;99315.37;4380193;32;20234;-67
2022/04/14 07:35:28;;;;;;;10.00;4.40;;;;;;;14.11;39.14;99313.59;4379850;32;20106;-67
2022/04/14 07:37:55;;;;;;;9.65;5.15;;;;;;;14.56;35.34;99309.28;4379877;32;20112;-67
2022/04/14 07:40:23;;;;;;;9.32;4.93;;;;;;;14.58;37.95;99312.63;4380228;32;20091;-67
2022/04/14 07:42:51;;;;;;;10.52;4.28;;;;;;;15.21;37.50;99316.97;4379543;32;20091;-67
2022/04/14 07:45:18;;;;;;;8.75;4.80;;;;;;;15.17;34.10;99318.28;4379983;32;20113;-67
2022/04/14 07:47:46;;;;;;;12.70;5.87;;;;;;;15.33;34.68;99320.19;4379945;32;20365;-67
2022/04/14 07:50:16;;;;;;;8.70;5.28;;;;;;;15.54;35.62;99319.84;4378739;32;20098;-67
2022/04/14 07:52:53;;;;;;;10.65;5.32;;;;;;;15.83;35.51;99317.91;4379891;32;20113;-67
2022/04/14 07:55:28;;;;;;;9.27;4.95;;;;;;;15.41;34.28;99322.91;4379808;32;20166;-67
2022/04/14 07:57:57;;;;;;;9.98;5.68;;;;;;;15.59;35.14;99319.38;4379968;32;20090;-67
2022/04/14 08:00:26;;;;;;;14.15;5.25;;;;;;;15.53;34.04;99322.66;4379747;32;20094;-67
2022/04/14 08:02:59;;;;;;;12.07;5.47;;;;;;;15.40;34.32;99323.88;4379819;32;20117;-68
2022/04/14 08:05:41;;;;;;;8.48;5.03;;;;;;;15.41;35.02;99322.06;4379833;32;20095;-67
2022/04/14 08:11:39;;;;;;;19.77;5.55;;;;;;;15.78;33.26;99329.75;4379878;32;20109;-67
2022/04/14 08:14:06;;;;;;;6.80;4.57;;;;;;;15.83;32.78;99329.28;4379563;32;20091;-67
2022/04/14 08:16:33;;;;;;;10.52;5.22;;;;;;;15.93;34.71;99329.19;4379732;32;20107;-67
2022/04/14 08:19:00;;;;;;;9.88;5.55;;;;;;;16.14;32.12;99328.78;4379675;32;20106;-67
2022/04/14 08:21:28;;;;;;;12.23;6.05;;;;;;;16.14;34.24;99342.00;4379771;32;20086;-67
2022/04/14 08:23:56;;;;;;;10.10;5.30;;;;;;;16.25;32.54;99327.66;4379455;32;20460;-67
2022/04/14 08:26:23;;;;;;;10.52;4.87;;;;;;;16.22;33.12;99333.28;4379637;32;20129;-67
2022/04/14 08:28:53;;;;;;;9.55;5.47;;;;;;;16.05;33.17;99333.22;4379604;32;20090;-67
2022/04/14 08:34:55;;;;;;;11.07;4.97;;;;;;;15.71;31.16;99333.97;4379687;32;20197;-67
2022/04/14 08:37:23;;;;;;;13.10;4.90;;;;;;;15.47;32.52;99326.72;4379507;32;20166;-67
2022/04/14 08:39:58;;;;;;;9.50;4.50;;;;;;;15.74;33.40;99336.31;4379627;32;20074;-67
2022/04/14 08:42:32;;;;;;;11.77;4.82;;;;;;;15.97;33.70;99327.88;4379235;32;20078;-67
2022/04/14 08:45:03;;;;;;;10.40;4.40;;;;;;;15.95;33.50;99329.84;4379941;32;20070;-67
2022/04/14 08:47:31;;;;;;;10.57;3.92;;;;;;;16.01;29.13;99325.75;4379609;32;20098;-66
2022/04/14 08:49:58;;;;;;;6.50;3.67;;;;;;;16.09;31.50;99323.97;4366095;32;20129;-65
2022/04/14 08:52:26;;;;;;;8.02;3.37;;;;;;;15.70;33.15;99334.12;4366081;32;20164;-65
2022/04/14 08:54:57;;;;;;;15.13;5.68;;;;;;;15.57;30.94;99327.47;4379296;32;20102;-66
2022/04/14 08:57:24;;;;;;;9.50;4.15;;;;;;;15.92;35.14;99333.62;4366003;32;20102;-67
2022/04/14 08:59:51;;;;;;;8.57;4.32;;;;;;;15.97;32.92;99330.50;4379318;32;20091;-67
2022/04/14 09:02:21;;;;;;;9.45;3.97;;;;;;;15.77;31.83;99332.53;4379385;32;20156;-67
2022/04/14 09:04:49;;;;;;;8.73;4.22;;;;;;;15.96;33.08;99328.88;4379429;32;20082;-67
2022/04/14 09:07:17;;;;;;;6.97;3.40;;;;;;;16.14;31.51;99326.97;4379348;32;20118;-67
2022/04/14 09:09:45;;;;;;;7.60;3.33;;;;;;;16.55;34.41;99333.34;4379416;32;20125;-66
2022/04/14 09:12:12;;;;;;;6.65;3.60;;;;;;;16.74;33.14;99333.06;4379443;32;20091;-67
2022/04/14 09:14:40;;;;;;;9.00;3.10;;;;;;;16.94;31.97;99327.50;4379279;32;20153;-67
2022/04/14 09:17:08;;;;;;;6.50;3.78;;;;;;;16.94;32.67;99328.34;4379265;32;20086;-67
2022/04/14 09:19:36;;;;;;;12.20;3.72;;;;;;;16.88;30.25;99326.34;4379404;32;20117;-68
2022/04/14 09:22:11;;;;;;;7.75;3.90;;;;;;;16.85;31.60;99327.47;4379265;32;20117;-67
2022/04/14 09:24:54;;;;;;;5.43;3.47;;;;;;;16.84;32.72;99323.16;4379235;32;20134;-67
2022/04/14 09:27:24;;;;;;;14.98;3.47;;;;;;;16.71;30.10;99322.81;4379247;32;20116;-67
2022/04/14 09:29:52;;;;;;;7.70;3.80;;;;;;;16.76;30.58;99325.81;4379210;32;20252;-67
2022/04/14 09:32:39;;;;;;;8.13;4.03;;;;;;;17.00;29.91;99326.84;4379224;32;20121;-67
2022/04/14 09:35:17;;;;;;;7.37;3.08;;;;;;;17.02;28.94;99324.88;4379590;32;20086;-67
2022/04/14 09:37:44;;;;;;;7.57;3.35;;;;;;;17.01;29.47;99328.50;4379477;32;20472;-68
2022/04/14 09:40:12;;;;;;;7.15;3.67;;;;;;;16.72;31.09;99329.75;4379091;32;20154;-67
2022/04/14 09:42:42;;;;;;;5.40;2.90;;;;;;;16.63;30.55;99317.50;4379149;32;20086;-68
2022/04/14 09:45:26;;;;;;;5.12;3.17;;;;;;;16.84;31.54;99317.88;4379209;32;20134;-67
2022/04/14 09:48:05;;;;;;;6.32;3.25;;;;;;;17.24;32.88;99317.25;4379072;32;20373;-67
2022/04/14 09:50:40;;;;;;;6.32;3.55;;;;;;;17.14;28.51;99309.50;4379047;32;20470;-67
2022/04/14 09:53:13;;;;;;;7.45;3.15;;;;;;;17.19;30.87;99309.81;4377814;32;20108;-67
2022/04/14 09:55:55;;;;;;;7.00;3.28;;;;;;;16.96;30.57;99309.66;4379060;32;20066;-67
2022/04/14 10:01:42;;;;;;;6.93;2.97;;;;;;;16.99;28.22;99307.50;4378631;32;20116;-67
2022/04/14 10:04:32;;;;;;;4.32;2.67;;;;;;;17.04;28.51;99307.00;4378139;32;20109;-67
2022/04/14 10:07:27;;;;;;;9.68;2.87;;;;;;;17.28;29.22;99306.16;4378534;32;20452;-67
2022/04/14 10:09:54;;;;;;;;;;;;;;;17.25;26.94;99298.53;4379145;32;20460;-67
2022/04/14 10:12:24;;;;;;;10.10;3.50;;;;;;;17.34;29.92;99296.72;4378786;32;19981;-67
2022/04/14 10:15:04;;;;;;;13.40;3.35;;;;;;;17.53;30.96;99293.72;4378953;32;20094;-67
2022/04/14 10:17:35;;;;;;;5.55;3.47;;;;;;;17.87;30.62;99292.59;4378974;32;20095;-67
2022/04/14 10:20:04;;;;;;;6.22;2.85;;;;;;;17.56;27.90;99288.06;4378628;32;20469;-67
2022/04/14 10:22:31;;;;;;;10.90;2.75;;;;;;;17.86;30.76;99293.59;4378762;32;20117;-67
2022/04/14 10:24:59;;;;;;;6.28;3.03;;;;;;;18.04;28.00;99296.03;4378286;32;20133;-67
2022/04/14 10:27:27;;;;;;;7.57;2.65;;;;;;;18.12;28.32;99281.91;4378415;32;20112;-67
2022/04/14 10:29:55;;;;;;;6.68;3.12;;;;;;;18.49;30.97;99284.87;4364805;32;20106;-67
2022/04/14 10:32:23;;;;;;;6.78;2.58;;;;;;;18.53;28.06;99272.91;4378458;32;20125;-67
2022/04/14 10:34:50;;;;;;;10.65;2.70;;;;;;;18.18;25.17;99281.25;4365064;32;20113;-67
2022/04/14 10:37:32;;;;;;;10.23;2.53;;;;;;;18.06;27.44;99275.50;4364870;32;20074;-67
2022/04/14 10:40:00;;;;;;;4.05;2.75;;;;;;;17.84;23.75;99271.75;4364802;32;20158;-67
2022/04/14 10:42:27;;;;;;;6.20;2.65;;;;;;;17.51;26.76;99274.50;4364815;32;20137;-67
2022/04/14 10:44:55;;;;;;;8.82;2.40;;;;;;;17.91;27.46;99272.75;4378357;32;20099;-67
2022/04/14 10:51:28;;;;;;;9.35;3.37;;;;;;;18.30;28.33;99270.22;4378309;32;20130;-67
2022/04/14 10:57:37;;;;;;;17.10;3.85;;;;;;;18.63;29.09;99260.22;4378255;32;20109;-67
2022/04/14 11:00:19;;;;;;;10.13;3.00;;;;;;;18.25;26.54;99268.91;4378064;32;20105;-67
2022/04/14 11:03:07;;;;;;;6.45;2.80;;;;;;;18.73;30.47;99266.12;4378192;32;20095;-67
2022/04/14 11:05:43;;;;;;;3.92;2.12;;;;;;;18.90;28.63;99272.16;4379752;32;20141;-67
2022/04/14 11:08:45;;;;;;;4.22;2.33;;;;;;;18.99;26.11;99269.47;4380322;32;20078;-67
2022/04/14 11:11:16;;;;;;;4.03;2.35;;;;;;;19.05;25.63;99274.88;4380172;32;20075;-67
2022/04/14 11:14:06;;;;;;;5.55;2.42;;;;;;;18.82;25.19;99269.56;4380223;32;20468;-67
2022/04/14 11:16:45;;;;;;;4.60;2.80;;;;;;;18.97;26.97;99259.84;4380473;32;20174;-67
2022/04/14 11:19:24;;;;;;;8.55;2.62;;;;;;;18.84;26.15;99262.22;4380062;32;20100;-67
2022/04/14 11:21:58;;;;;;;4.87;2.30;;;;;;;18.25;25.02;99250.34;4380198;32;20436;-67
2022/04/14 11:24:41;;;;;;;4.80;2.22;;;;;;;18.68;28.34;99254.37;4380188;32;20114;-67
2022/04/14 11:27:22;;;;;;;2.92;2.05;;;;;;;18.76;26.15;99252.50;4380154;32;20114;-70
2022/04/14 11:30:09;;;;;;;3.22;2.00;;;;;;;18.80;26.71;99243.19;4380355;32;20219;-68
2022/04/14 11:32:38;;;;;;;9.40;2.22;;;;;;;19.05;25.63;99245.66;4379984;32;20082;-67
2022/04/14 11:35:30;;;;;;;6.65;2.22;;;;;;;19.00;26.73;99242.72;4380048;32;20511;-67
2022/04/14 11:37:58;;;;;;;4.80;2.30;;;;;;;19.11;26.93;99236.97;4379949;32;20107;-67
2022/04/14 11:40:26;;;;;;;4.22;2.55;;;;;;;19.21;25.99;99241.19;4380122;32;20113;-67
2022/04/14 11:42:55;;;;;;;3.67;2.83;;;;;;;18.95;25.72;99232.63;4379853;32;20145;-67
2022/04/14 11:45:27;;;;;;;4.82;2.28;;;;;;;19.37;28.30;99235.72;4380095;32;20095;-68
2022/04/14 11:51:26;;;;;;;6.87;2.62;;;;;;;19.69;24.89;99237.16;4379992;32;20133;-67
2022/04/14 11:53:55;;;;;;;11.80;2.83;;;;;;;19.88;28.54;99232.31;4379699;32;20095;-67
2022/04/14 11:56:39;;;;;;;6.12;2.90;;;;;;;20.11;28.84;99231.37;4379671;32;20464;-67
2022/04/14 11:59:08;;;;;;;4.62;2.78;;;;;;;20.14;27.69;99225.66;4366591;32;20103;-67
2022/04/14 12:01:48;;;;;;;4.57;3.22;;;;;;;20.01;28.01;99229.78;4380077;32;20523;-68
2022/04/14 12:04:16;;;;;;;5.78;2.53;;;;;;;19.63;26.20;99229.91;4379856;32;20603;-67
2022/04/14 12:06:56;;;;;;;9.38;2.85;;;;;;;19.76;26.86;99231.13;4379907;32;20103;-68
2022/04/14 12:09:26;;;;;;;4.05;2.60;;;;;;;19.51;30.34;99218.09;4379760;32;20373;-67
2022/04/14 12:11:53;;;;;;;9.90;2.47;;;;;;;19.89;29.03;99206.56;4380096;32;20083;-68
2022/04/14 12:14:21;;;;;;;3.90;2.30;;;;;;;19.89;24.28;99201.22;4379793;32;20090;-67
2022/04/14 12:16:53;;;;;;;4.85;2.33;;;;;;;19.17;24.97;99208.84;4379168;32;20447;-67
2022/04/14 12:19:20;;;;;;;7.03;2.22;;;;;;;19.07;28.73;99203.78;4379764;32;20078;-67
2022/04/14 12:22:02;;;;;;;6.60;2.35;;;;;;;19.49;28.59;99206.84;4379709;32;20129;-67
2022/04/14 12:24:29;;;;;;;3.05;2.00;;;;;;;19.77;30.25;99190.22;4379990;32;20075;-67